KUTA

Details ICAO KUTA (UTM)
Name TUNICA MUNI
Region United States
Timezone America/Chicago (UTC-5.0)
Plans Departing 0
Arriving 3
Stats Elevation 194 ft / 59 m (AMSL)
Location 34.685065° -90.347779°
Runways 1
Magnetic Variation 1.104° W
Sunrise 2018-05-20 10:56:29 UTC / 2018-05-20 05:56:29 Local
Sunset 2018-05-21 01:02:14 UTC / 2018-05-20 20:02:14 Local
Advertisement - Login to hide

Runways

ID Width Length Bearing (true) Bearing (mag) Surface Threshold Offset Overrun Length
17 151 ft / 46 m 8,508 ft / 2,593 m 167.06° 168.16° Asphalt 0 ft / 0 m 0 ft / 0 m
35 151 ft / 46 m 8,508 ft / 2,593 m 347.06° 348.16° Asphalt 0 ft / 0 m 200 ft / 61 m

Approach Navaids

Runway Type Ident Frequency Range Bearing (true) Bearing (mag) Slope Elevation
35 Localiser IUTA 110.95 MHz 18 nm / 33 km 347.05° 348.15° - 194 ft / 59 m (AMSL)
35 Glidescope IUTA 110.95 MHz 10 nm / 19 km 347.06° 348.17° 3.00° 187 ft / 57 m (AMSL)
35 DME IUTA 110.95 MHz 18 nm / 33 km - - - 194 ft / 59 m (AMSL)

Map

Weather


0- 5 10 15 20 25 30 35+ Temperature / ° C

Clouds and Precipitation
Forecast for 2018-05-20 18:00 UTC. Updated an hour ago

Ground ~20,000 ft ~40,000 ft Winds

METAR

KUTA 201635Z AUTO 00000KT 10SM 30/21 A3009 RMK AO2 TSNO

TAF

Not found

Frequencies

Recorded 118.07 MHz AWOS 3
Approach 119.10 MHz APP/DEP
Unicom 123.00 MHz CTAF/UNICOM
Warning: Do not use this data for real-world aviation or navigation. No guarantee of current accuracy is given.